sensor_id;sensor_type;location;lat;lon;timestamp;P1;durP1;ratioP1;P2;durP2;ratioP2
35506;SDS011;36461;52.018;21.036;2022-11-15T00:00:50;30.95;;;20.00;;
35506;SDS011;36461;52.018;21.036;2022-11-15T00:03:35;31.62;;;19.77;;
35506;SDS011;36461;52.018;21.036;2022-11-15T00:06:20;27.45;;;19.23;;
35506;SDS011;36461;52.018;21.036;2022-11-15T00:09:05;28.07;;;18.10;;
35506;SDS011;36461;52.018;21.036;2022-11-15T00:11:50;31.62;;;20.12;;
35506;SDS011;36461;52.018;21.036;2022-11-15T00:14:35;25.43;;;17.95;;
35506;SDS011;36461;52.018;21.036;2022-11-15T00:17:20;27.85;;;18.60;;
35506;SDS011;36461;52.018;21.036;2022-11-15T00:20:06;28.60;;;17.60;;
35506;SDS011;36461;52.018;21.036;2022-11-15T00:22:52;26.80;;;19.10;;
35506;SDS011;36461;52.018;21.036;2022-11-15T00:25:37;26.60;;;18.07;;
35506;SDS011;36461;52.018;21.036;2022-11-15T00:28:22;27.85;;;18.60;;
35506;SDS011;36461;52.018;21.036;2022-11-15T00:31:13;27.15;;;17.92;;
35506;SDS011;36461;52.018;21.036;2022-11-15T00:33:57;25.55;;;17.95;;
35506;SDS011;36461;52.018;21.036;2022-11-15T00:36:41;28.90;;;18.42;;
35506;SDS011;36461;52.018;21.036;2022-11-15T00:39:26;26.23;;;17.87;;
35506;SDS011;36461;52.018;21.036;2022-11-15T00:42:11;25.27;;;18.10;;
35506;SDS011;36461;52.018;21.036;2022-11-15T00:44:55;26.65;;;17.70;;
35506;SDS011;36461;52.018;21.036;2022-11-15T00:47:39;28.80;;;18.62;;
35506;SDS011;36461;52.018;21.036;2022-11-15T00:50:24;24.95;;;17.30;;
35506;SDS011;36461;52.018;21.036;2022-11-15T00:53:09;27.07;;;17.37;;
35506;SDS011;36461;52.018;21.036;2022-11-15T00:55:54;28.77;;;18.25;;
35506;SDS011;36461;52.018;21.036;2022-11-15T00:58:39;27.22;;;18.10;;
35506;SDS011;36461;52.018;21.036;2022-11-15T01:01:23;24.35;;;16.95;;
35506;SDS011;36461;52.018;21.036;2022-11-15T01:04:08;28.87;;;18.62;;
35506;SDS011;36461;52.018;21.036;2022-11-15T01:06:52;26.33;;;18.15;;
35506;SDS011;36461;52.018;21.036;2022-11-15T01:09:38;26.70;;;18.63;;
35506;SDS011;36461;52.018;21.036;2022-11-15T01:12:23;29.63;;;18.02;;
35506;SDS011;36461;52.018;21.036;2022-11-15T01:15:07;28.23;;;18.65;;
35506;SDS011;36461;52.018;21.036;2022-11-15T01:17:53;28.90;;;18.73;;
35506;SDS011;36461;52.018;21.036;2022-11-15T01:20:42;27.13;;;17.90;;
35506;SDS011;36461;52.018;21.036;2022-11-15T01:23:27;29.95;;;18.52;;
35506;SDS011;36461;52.018;21.036;2022-11-15T01:26:13;28.10;;;18.95;;
35506;SDS011;36461;52.018;21.036;2022-11-15T01:28:59;31.97;;;19.62;;
35506;SDS011;36461;52.018;21.036;2022-11-15T01:31:44;28.90;;;19.62;;
35506;SDS011;36461;52.018;21.036;2022-11-15T01:34:29;29.37;;;20.00;;
35506;SDS011;36461;52.018;21.036;2022-11-15T01:37:14;29.00;;;20.02;;
35506;SDS011;36461;52.018;21.036;2022-11-15T01:39:59;28.73;;;19.70;;
35506;SDS011;36461;52.018;21.036;2022-11-15T01:42:43;31.62;;;20.62;;
35506;SDS011;36461;52.018;21.036;2022-11-15T01:45:28;29.95;;;19.82;;
35506;SDS011;36461;52.018;21.036;2022-11-15T01:48:13;32.13;;;20.45;;
35506;SDS011;36461;52.018;21.036;2022-11-15T01:50:59;33.73;;;21.97;;
35506;SDS011;36461;52.018;21.036;2022-11-15T01:53:49;32.58;;;21.12;;
35506;SDS011;36461;52.018;21.036;2022-11-15T01:56:39;34.20;;;22.15;;
35506;SDS011;36461;52.018;21.036;2022-11-15T02:06:05;38.20;;;22.98;;
35506;SDS011;36461;52.018;21.036;2022-11-15T02:08:51;34.92;;;23.65;;
35506;SDS011;36461;52.018;21.036;2022-11-15T02:11:36;35.63;;;22.23;;
35506;SDS011;36461;52.018;21.036;2022-11-15T02:14:22;38.57;;;23.33;;
35506;SDS011;36461;52.018;21.036;2022-11-15T02:42:19;36.53;;;22.37;;
35506;SDS011;36461;52.018;21.036;2022-11-15T02:45:28;36.90;;;22.73;;
35506;SDS011;36461;52.018;21.036;2022-11-15T02:48:17;38.85;;;24.00;;
35506;SDS011;36461;52.018;21.036;2022-11-15T02:53:49;36.70;;;22.07;;
35506;SDS011;36461;52.018;21.036;2022-11-15T02:56:34;36.90;;;22.13;;
35506;SDS011;36461;52.018;21.036;2022-11-15T02:59:24;34.43;;;21.57;;
35506;SDS011;36461;52.018;21.036;2022-11-15T03:05:21;31.77;;;21.68;;
35506;SDS011;36461;52.018;21.036;2022-11-15T03:08:36;36.38;;;22.85;;
35506;SDS011;36461;52.018;21.036;2022-11-15T03:11:31;34.25;;;20.68;;
35506;SDS011;36461;52.018;21.036;2022-11-15T03:14:30;34.63;;;21.25;;
35506;SDS011;36461;52.018;21.036;2022-11-15T03:17:30;34.83;;;21.25;;
35506;SDS011;36461;52.018;21.036;2022-11-15T03:20:19;38.60;;;22.48;;
35506;SDS011;36461;52.018;21.036;2022-11-15T03:23:05;34.60;;;21.77;;
35506;SDS011;36461;52.018;21.036;2022-11-15T03:25:53;32.78;;;20.40;;
35506;SDS011;36461;52.018;21.036;2022-11-15T03:28:45;33.63;;;20.50;;
35506;SDS011;36461;52.018;21.036;2022-11-15T03:31:37;35.52;;;21.60;;
35506;SDS011;36461;52.018;21.036;2022-11-15T03:34:40;33.63;;;21.12;;
35506;SDS011;36461;52.018;21.036;2022-11-15T03:37:37;32.78;;;20.95;;
35506;SDS011;36461;52.018;21.036;2022-11-15T03:40:25;32.42;;;20.23;;
35506;SDS011;36461;52.018;21.036;2022-11-15T03:43:30;31.48;;;19.92;;
35506;SDS011;36461;52.018;21.036;2022-11-15T03:46:47;36.95;;;21.15;;
35506;SDS011;36461;52.018;21.036;2022-11-15T03:49:52;35.92;;;21.33;;
35506;SDS011;36461;52.018;21.036;2022-11-15T03:52:42;37.20;;;21.25;;
35506;SDS011;36461;52.018;21.036;2022-11-15T03:55:31;34.35;;;20.57;;
35506;SDS011;36461;52.018;21.036;2022-11-15T03:58:17;37.38;;;21.95;;
35506;SDS011;36461;52.018;21.036;2022-11-15T04:01:01;37.95;;;21.60;;
35506;SDS011;36461;52.018;21.036;2022-11-15T04:03:46;36.65;;;21.70;;
35506;SDS011;36461;52.018;21.036;2022-11-15T04:06:31;36.03;;;21.65;;
35506;SDS011;36461;52.018;21.036;2022-11-15T04:09:16;34.98;;;20.57;;
35506;SDS011;36461;52.018;21.036;2022-11-15T04:12:01;33.95;;;21.12;;
35506;SDS011;36461;52.018;21.036;2022-11-15T04:14:46;35.30;;;21.23;;
35506;SDS011;36461;52.018;21.036;2022-11-15T04:17:33;38.13;;;21.90;;
35506;SDS011;36461;52.018;21.036;2022-11-15T04:20:29;35.85;;;21.23;;
35506;SDS011;36461;52.018;21.036;2022-11-15T04:23:35;37.75;;;22.98;;
35506;SDS011;36461;52.018;21.036;2022-11-15T04:26:38;36.15;;;21.23;;
35506;SDS011;36461;52.018;21.036;2022-11-15T04:29:23;36.33;;;21.23;;
35506;SDS011;36461;52.018;21.036;2022-11-15T04:32:20;32.90;;;20.17;;
35506;SDS011;36461;52.018;21.036;2022-11-15T04:35:06;34.40;;;20.45;;
35506;SDS011;36461;52.018;21.036;2022-11-15T04:37:52;34.35;;;19.75;;
35506;SDS011;36461;52.018;21.036;2022-11-15T04:40:36;36.50;;;21.73;;
35506;SDS011;36461;52.018;21.036;2022-11-15T04:43:23;33.15;;;20.05;;
35506;SDS011;36461;52.018;21.036;2022-11-15T04:46:07;39.63;;;22.70;;
35506;SDS011;36461;52.018;21.036;2022-11-15T04:48:52;36.83;;;21.70;;
35506;SDS011;36461;52.018;21.036;2022-11-15T04:51:38;36.23;;;21.37;;
35506;SDS011;36461;52.018;21.036;2022-11-15T04:54:23;35.23;;;21.27;;
35506;SDS011;36461;52.018;21.036;2022-11-15T04:57:07;35.98;;;22.37;;
35506;SDS011;36461;52.018;21.036;2022-11-15T04:59:53;36.33;;;20.50;;
35506;SDS011;36461;52.018;21.036;2022-11-15T05:02:37;35.33;;;20.80;;
35506;SDS011;36461;52.018;21.036;2022-11-15T05:05:41;35.17;;;20.30;;
35506;SDS011;36461;52.018;21.036;2022-11-15T05:08:27;33.63;;;19.80;;
35506;SDS011;36461;52.018;21.036;2022-11-15T05:11:12;33.98;;;19.02;;
35506;SDS011;36461;52.018;21.036;2022-11-15T05:13:56;31.57;;;18.60;;
35506;SDS011;36461;52.018;21.036;2022-11-15T05:16:41;36.55;;;20.52;;
35506;SDS011;36461;52.018;21.036;2022-11-15T05:19:27;31.45;;;18.87;;
35506;SDS011;36461;52.018;21.036;2022-11-15T05:22:12;33.42;;;18.73;;
35506;SDS011;36461;52.018;21.036;2022-11-15T05:24:57;35.03;;;20.17;;
35506;SDS011;36461;52.018;21.036;2022-11-15T05:27:41;33.75;;;19.25;;
35506;SDS011;36461;52.018;21.036;2022-11-15T05:30:26;31.95;;;19.20;;
35506;SDS011;36461;52.018;21.036;2022-11-15T05:33:10;32.67;;;18.73;;
35506;SDS011;36461;52.018;21.036;2022-11-15T05:35:57;31.30;;;19.67;;
35506;SDS011;36461;52.018;21.036;2022-11-15T05:38:48;33.95;;;19.80;;
35506;SDS011;36461;52.018;21.036;2022-11-15T05:41:43;32.30;;;19.73;;
35506;SDS011;36461;52.018;21.036;2022-11-15T05:44:27;35.40;;;20.43;;
35506;SDS011;36461;52.018;21.036;2022-11-15T05:47:14;35.03;;;20.88;;
35506;SDS011;36461;52.018;21.036;2022-11-15T05:50:09;38.40;;;21.12;;
35506;SDS011;36461;52.018;21.036;2022-11-15T05:52:57;34.70;;;19.57;;
35506;SDS011;36461;52.018;21.036;2022-11-15T05:58:30;31.45;;;18.52;;
35506;SDS011;36461;52.018;21.036;2022-11-15T06:01:17;36.17;;;20.23;;
35506;SDS011;36461;52.018;21.036;2022-11-15T06:04:02;34.88;;;19.57;;
35506;SDS011;36461;52.018;21.036;2022-11-15T06:06:47;35.33;;;19.45;;
35506;SDS011;36461;52.018;21.036;2022-11-15T06:09:32;38.23;;;20.72;;
35506;SDS011;36461;52.018;21.036;2022-11-15T06:12:17;37.28;;;20.20;;
35506;SDS011;36461;52.018;21.036;2022-11-15T06:15:02;36.15;;;20.08;;
35506;SDS011;36461;52.018;21.036;2022-11-15T06:17:49;36.42;;;19.62;;
35506;SDS011;36461;52.018;21.036;2022-11-15T06:20:34;31.20;;;18.65;;
35506;SDS011;36461;52.018;21.036;2022-11-15T06:23:19;32.50;;;18.17;;
35506;SDS011;36461;52.018;21.036;2022-11-15T06:26:04;30.80;;;17.98;;
35506;SDS011;36461;52.018;21.036;2022-11-15T06:28:48;33.13;;;19.92;;
35506;SDS011;36461;52.018;21.036;2022-11-15T06:31:33;31.87;;;18.45;;
35506;SDS011;36461;52.018;21.036;2022-11-15T06:34:18;33.50;;;18.45;;
35506;SDS011;36461;52.018;21.036;2022-11-15T06:37:03;30.57;;;18.23;;
35506;SDS011;36461;52.018;21.036;2022-11-15T06:39:48;30.45;;;18.30;;
35506;SDS011;36461;52.018;21.036;2022-11-15T06:42:33;31.37;;;18.10;;
35506;SDS011;36461;52.018;21.036;2022-11-15T06:45:17;30.40;;;18.20;;
35506;SDS011;36461;52.018;21.036;2022-11-15T06:48:02;29.63;;;17.17;;
35506;SDS011;36461;52.018;21.036;2022-11-15T06:50:55;29.03;;;16.67;;
35506;SDS011;36461;52.018;21.036;2022-11-15T06:53:42;28.55;;;17.32;;
35506;SDS011;36461;52.018;21.036;2022-11-15T06:56:28;28.83;;;16.75;;
35506;SDS011;36461;52.018;21.036;2022-11-15T06:59:13;30.45;;;17.70;;
35506;SDS011;36461;52.018;21.036;2022-11-15T07:02:00;29.25;;;17.07;;
35506;SDS011;36461;52.018;21.036;2022-11-15T07:04:45;25.90;;;15.35;;
35506;SDS011;36461;52.018;21.036;2022-11-15T07:07:30;26.27;;;15.48;;
35506;SDS011;36461;52.018;21.036;2022-11-15T07:10:15;27.65;;;16.30;;
35506;SDS011;36461;52.018;21.036;2022-11-15T07:13:00;28.95;;;16.52;;
35506;SDS011;36461;52.018;21.036;2022-11-15T07:15:45;26.62;;;15.90;;
35506;SDS011;36461;52.018;21.036;2022-11-15T07:18:29;27.60;;;16.23;;
35506;SDS011;36461;52.018;21.036;2022-11-15T07:21:14;31.37;;;17.32;;
35506;SDS011;36461;52.018;21.036;2022-11-15T07:23:58;27.85;;;16.37;;
35506;SDS011;36461;52.018;21.036;2022-11-15T07:26:43;29.10;;;16.77;;
35506;SDS011;36461;52.018;21.036;2022-11-15T07:29:27;29.67;;;17.40;;
35506;SDS011;36461;52.018;21.036;2022-11-15T07:32:12;33.88;;;16.75;;
35506;SDS011;36461;52.018;21.036;2022-11-15T07:34:56;25.50;;;14.43;;
35506;SDS011;36461;52.018;21.036;2022-11-15T07:37:41;26.93;;;14.85;;
35506;SDS011;36461;52.018;21.036;2022-11-15T07:40:26;24.15;;;13.50;;
35506;SDS011;36461;52.018;21.036;2022-11-15T07:43:14;23.10;;;13.93;;
35506;SDS011;36461;52.018;21.036;2022-11-15T07:46:03;23.57;;;13.98;;
35506;SDS011;36461;52.018;21.036;2022-11-15T07:48:53;23.42;;;13.43;;
35506;SDS011;36461;52.018;21.036;2022-11-15T07:51:37;27.02;;;14.93;;
35506;SDS011;36461;52.018;21.036;2022-11-15T07:54:22;23.10;;;14.28;;
35506;SDS011;36461;52.018;21.036;2022-11-15T07:57:07;20.25;;;13.38;;
35506;SDS011;36461;52.018;21.036;2022-11-15T07:59:53;22.40;;;13.83;;
35506;SDS011;36461;52.018;21.036;2022-11-15T08:02:38;20.70;;;13.08;;
35506;SDS011;36461;52.018;21.036;2022-11-15T08:05:23;21.33;;;12.85;;
35506;SDS011;36461;52.018;21.036;2022-11-15T08:08:09;21.70;;;12.40;;
35506;SDS011;36461;52.018;21.036;2022-11-15T08:10:56;20.62;;;13.48;;
35506;SDS011;36461;52.018;21.036;2022-11-15T08:13:42;22.30;;;13.93;;
35506;SDS011;36461;52.018;21.036;2022-11-15T08:16:27;23.32;;;13.60;;
35506;SDS011;36461;52.018;21.036;2022-11-15T08:19:11;21.57;;;13.43;;
35506;SDS011;36461;52.018;21.036;2022-11-15T08:21:56;22.58;;;13.65;;
35506;SDS011;36461;52.018;21.036;2022-11-15T08:24:40;23.65;;;13.15;;
35506;SDS011;36461;52.018;21.036;2022-11-15T08:27:25;22.40;;;13.93;;
35506;SDS011;36461;52.018;21.036;2022-11-15T08:30:11;22.93;;;14.38;;
35506;SDS011;36461;52.018;21.036;2022-11-15T08:32:58;25.37;;;15.43;;
35506;SDS011;36461;52.018;21.036;2022-11-15T08:35:43;24.47;;;14.60;;
35506;SDS011;36461;52.018;21.036;2022-11-15T08:38:28;24.73;;;14.63;;
35506;SDS011;36461;52.018;21.036;2022-11-15T08:41:16;23.22;;;14.13;;
35506;SDS011;36461;52.018;21.036;2022-11-15T08:44:19;22.93;;;14.58;;
35506;SDS011;36461;52.018;21.036;2022-11-15T08:47:05;21.42;;;13.58;;
35506;SDS011;36461;52.018;21.036;2022-11-15T08:49:49;24.02;;;14.80;;
35506;SDS011;36461;52.018;21.036;2022-11-15T08:52:35;23.00;;;14.25;;
35506;SDS011;36461;52.018;21.036;2022-11-15T08:55:19;22.25;;;13.83;;
35506;SDS011;36461;52.018;21.036;2022-11-15T08:58:05;26.42;;;15.18;;
35506;SDS011;36461;52.018;21.036;2022-11-15T09:00:50;24.40;;;15.05;;
35506;SDS011;36461;52.018;21.036;2022-11-15T09:03:35;26.17;;;15.90;;
35506;SDS011;36461;52.018;21.036;2022-11-15T09:06:19;26.05;;;15.53;;
35506;SDS011;36461;52.018;21.036;2022-11-15T09:09:04;23.98;;;15.08;;
35506;SDS011;36461;52.018;21.036;2022-11-15T09:11:48;24.52;;;15.08;;
35506;SDS011;36461;52.018;21.036;2022-11-15T09:14:34;27.67;;;16.40;;
35506;SDS011;36461;52.018;21.036;2022-11-15T09:17:20;25.97;;;17.10;;
35506;SDS011;36461;52.018;21.036;2022-11-15T09:20:05;26.27;;;15.95;;
35506;SDS011;36461;52.018;21.036;2022-11-15T09:22:52;27.35;;;17.07;;
35506;SDS011;36461;52.018;21.036;2022-11-15T09:25:36;25.92;;;16.90;;
35506;SDS011;36461;52.018;21.036;2022-11-15T09:28:21;24.85;;;16.73;;
35506;SDS011;36461;52.018;21.036;2022-11-15T09:31:06;23.40;;;16.17;;
35506;SDS011;36461;52.018;21.036;2022-11-15T09:33:51;21.25;;;14.03;;
35506;SDS011;36461;52.018;21.036;2022-11-15T09:36:36;24.87;;;15.95;;
35506;SDS011;36461;52.018;21.036;2022-11-15T09:39:21;25.12;;;16.02;;
35506;SDS011;36461;52.018;21.036;2022-11-15T09:50:59;24.85;;;16.23;;
35506;SDS011;36461;52.018;21.036;2022-11-15T09:53:48;25.37;;;16.93;;
35506;SDS011;36461;52.018;21.036;2022-11-15T09:56:20;23.15;;;15.80;;
35506;SDS011;36461;52.018;21.036;2022-11-15T09:59:05;25.60;;;16.37;;
35506;SDS011;36461;52.018;21.036;2022-11-15T10:04:47;23.83;;;15.88;;
35506;SDS011;36461;52.018;21.036;2022-11-15T10:07:19;28.23;;;17.45;;
35506;SDS011;36461;52.018;21.036;2022-11-15T10:10:00;24.87;;;16.75;;
35506;SDS011;36461;52.018;21.036;2022-11-15T10:12:39;23.07;;;15.10;;
35506;SDS011;36461;52.018;21.036;2022-11-15T10:15:11;26.05;;;16.65;;
35506;SDS011;36461;52.018;21.036;2022-11-15T10:20:44;25.30;;;16.23;;
35506;SDS011;36461;52.018;21.036;2022-11-15T10:23:17;22.30;;;15.32;;
35506;SDS011;36461;52.018;21.036;2022-11-15T10:25:47;26.25;;;18.12;;
35506;SDS011;36461;52.018;21.036;2022-11-15T10:28:29;25.30;;;16.80;;
35506;SDS011;36461;52.018;21.036;2022-11-15T10:30:58;29.32;;;18.37;;
35506;SDS011;36461;52.018;21.036;2022-11-15T10:46:45;24.18;;;15.53;;
35506;SDS011;36461;52.018;21.036;2022-11-15T10:49:17;24.63;;;16.20;;
35506;SDS011;36461;52.018;21.036;2022-11-15T10:54:51;26.10;;;16.55;;
35506;SDS011;36461;52.018;21.036;2022-11-15T10:57:37;28.00;;;16.87;;
35506;SDS011;36461;52.018;21.036;2022-11-15T11:00:48;26.45;;;17.23;;
35506;SDS011;36461;52.018;21.036;2022-11-15T11:03:00;26.95;;;17.02;;
35506;SDS011;36461;52.018;21.036;2022-11-15T11:05:33;28.30;;;17.70;;
35506;SDS011;36461;52.018;21.036;2022-11-15T11:10:37;28.32;;;17.55;;
35506;SDS011;36461;52.018;21.036;2022-11-15T11:22:09;31.17;;;19.10;;
35506;SDS011;36461;52.018;21.036;2022-11-15T11:30:49;32.55;;;19.12;;
35506;SDS011;36461;52.018;21.036;2022-11-15T11:36:53;29.63;;;19.30;;
35506;SDS011;36461;52.018;21.036;2022-11-15T11:39:44;30.72;;;19.20;;
35506;SDS011;36461;52.018;21.036;2022-11-15T11:48:32;34.65;;;20.48;;
35506;SDS011;36461;52.018;21.036;2022-11-15T11:51:10;31.05;;;19.67;;
35506;SDS011;36461;52.018;21.036;2022-11-15T11:53:52;33.60;;;20.77;;
35506;SDS011;36461;52.018;21.036;2022-11-15T11:56:29;32.50;;;20.62;;
35506;SDS011;36461;52.018;21.036;2022-11-15T12:02:12;33.90;;;22.17;;
35506;SDS011;36461;52.018;21.036;2022-11-15T12:05:20;34.92;;;20.62;;
35506;SDS011;36461;52.018;21.036;2022-11-15T12:07:50;31.23;;;21.10;;
35506;SDS011;36461;52.018;21.036;2022-11-15T12:10:24;35.58;;;21.10;;
35506;SDS011;36461;52.018;21.036;2022-11-15T12:13:07;33.38;;;20.25;;
35506;SDS011;36461;52.018;21.036;2022-11-15T12:15:50;34.80;;;22.77;;
35506;SDS011;36461;52.018;21.036;2022-11-15T12:18:21;38.53;;;24.07;;
35506;SDS011;36461;52.018;21.036;2022-11-15T12:20:58;36.65;;;22.87;;
35506;SDS011;36461;52.018;21.036;2022-11-15T12:23:26;37.80;;;23.90;;
35506;SDS011;36461;52.018;21.036;2022-11-15T12:26:16;36.75;;;24.18;;
35506;SDS011;36461;52.018;21.036;2022-11-15T12:34:04;33.55;;;21.93;;
35506;SDS011;36461;52.018;21.036;2022-11-15T12:36:50;34.00;;;22.55;;
35506;SDS011;36461;52.018;21.036;2022-11-15T12:39:17;36.48;;;22.32;;
35506;SDS011;36461;52.018;21.036;2022-11-15T12:47:21;41.90;;;25.15;;
35506;SDS011;36461;52.018;21.036;2022-11-15T12:52:08;37.90;;;24.67;;
35506;SDS011;36461;52.018;21.036;2022-11-15T12:59:58;44.23;;;27.02;;
35506;SDS011;36461;52.018;21.036;2022-11-15T13:02:42;41.68;;;26.65;;
35506;SDS011;36461;52.018;21.036;2022-11-15T13:12:59;37.53;;;24.75;;
35506;SDS011;36461;52.018;21.036;2022-11-15T13:20:57;33.50;;;22.13;;
35506;SDS011;36461;52.018;21.036;2022-11-15T13:23:24;34.75;;;23.45;;
35506;SDS011;36461;52.018;21.036;2022-11-15T13:28:42;35.43;;;23.10;;
35506;SDS011;36461;52.018;21.036;2022-11-15T13:33:51;41.85;;;26.15;;
35506;SDS011;36461;52.018;21.036;2022-11-15T13:36:28;38.78;;;24.70;;
35506;SDS011;36461;52.018;21.036;2022-11-15T13:39:12;39.70;;;26.40;;
35506;SDS011;36461;52.018;21.036;2022-11-15T13:41:35;39.35;;;24.95;;
35506;SDS011;36461;52.018;21.036;2022-11-15T13:44:18;37.88;;;24.55;;
35506;SDS011;36461;52.018;21.036;2022-11-15T13:46:38;43.63;;;26.65;;
35506;SDS011;36461;52.018;21.036;2022-11-15T13:49:08;38.92;;;26.45;;
35506;SDS011;36461;52.018;21.036;2022-11-15T13:54:17;35.55;;;23.73;;
35506;SDS011;36461;52.018;21.036;2022-11-15T13:56:53;40.38;;;23.70;;
35506;SDS011;36461;52.018;21.036;2022-11-15T13:59:47;34.03;;;22.85;;
35506;SDS011;36461;52.018;21.036;2022-11-15T14:02:16;34.63;;;22.90;;
35506;SDS011;36461;52.018;21.036;2022-11-15T14:04:49;34.88;;;22.75;;
35506;SDS011;36461;52.018;21.036;2022-11-15T14:07:23;31.40;;;22.10;;
35506;SDS011;36461;52.018;21.036;2022-11-15T14:09:53;35.33;;;23.05;;
35506;SDS011;36461;52.018;21.036;2022-11-15T14:12:27;40.65;;;26.75;;
35506;SDS011;36461;52.018;21.036;2022-11-15T14:14:58;39.75;;;25.97;;
35506;SDS011;36461;52.018;21.036;2022-11-15T14:17:37;34.05;;;22.17;;
35506;SDS011;36461;52.018;21.036;2022-11-15T14:23:01;38.45;;;24.47;;
35506;SDS011;36461;52.018;21.036;2022-11-15T14:25:34;37.30;;;24.27;;
35506;SDS011;36461;52.018;21.036;2022-11-15T14:30:54;37.38;;;24.32;;
35506;SDS011;36461;52.018;21.036;2022-11-15T14:36:05;39.00;;;25.15;;
35506;SDS011;36461;52.018;21.036;2022-11-15T14:38:44;36.50;;;24.85;;
35506;SDS011;36461;52.018;21.036;2022-11-15T14:41:21;40.98;;;27.73;;
35506;SDS011;36461;52.018;21.036;2022-11-15T14:46:16;38.45;;;24.70;;
35506;SDS011;36461;52.018;21.036;2022-11-15T14:48:43;34.92;;;23.87;;
35506;SDS011;36461;52.018;21.036;2022-11-15T14:51:13;37.45;;;25.23;;
35506;SDS011;36461;52.018;21.036;2022-11-15T14:53:43;46.73;;;30.00;;
35506;SDS011;36461;52.018;21.036;2022-11-15T14:56:11;51.90;;;33.15;;
35506;SDS011;36461;52.018;21.036;2022-11-15T14:58:38;41.08;;;27.13;;
35506;SDS011;36461;52.018;21.036;2022-11-15T15:01:24;40.35;;;25.75;;
35506;SDS011;36461;52.018;21.036;2022-11-15T15:03:42;35.52;;;23.92;;
35506;SDS011;36461;52.018;21.036;2022-11-15T15:08:38;37.60;;;24.47;;
35506;SDS011;36461;52.018;21.036;2022-11-15T15:11:10;39.27;;;24.85;;
35506;SDS011;36461;52.018;21.036;2022-11-15T15:13:40;36.05;;;25.02;;
35506;SDS011;36461;52.018;21.036;2022-11-15T15:16:07;42.45;;;26.93;;
35506;SDS011;36461;52.018;21.036;2022-11-15T15:21:00;39.25;;;25.80;;
35506;SDS011;36461;52.018;21.036;2022-11-15T15:23:32;41.00;;;27.93;;
35506;SDS011;36461;52.018;21.036;2022-11-15T15:26:01;42.60;;;28.75;;
35506;SDS011;36461;52.018;21.036;2022-11-15T15:28:27;97.57;;;55.20;;
35506;SDS011;36461;52.018;21.036;2022-11-15T15:30:53;88.40;;;53.13;;
35506;SDS011;36461;52.018;21.036;2022-11-15T15:33:20;46.65;;;29.55;;
35506;SDS011;36461;52.018;21.036;2022-11-15T15:35:46;40.00;;;26.62;;
35506;SDS011;36461;52.018;21.036;2022-11-15T15:38:12;44.40;;;29.23;;
35506;SDS011;36461;52.018;21.036;2022-11-15T15:40:39;39.80;;;27.70;;
35506;SDS011;36461;52.018;21.036;2022-11-15T15:43:06;41.65;;;27.00;;
35506;SDS011;36461;52.018;21.036;2022-11-15T15:45:34;42.55;;;29.32;;
35506;SDS011;36461;52.018;21.036;2022-11-15T15:48:05;42.08;;;27.17;;
35506;SDS011;36461;52.018;21.036;2022-11-15T15:50:35;39.67;;;26.17;;
35506;SDS011;36461;52.018;21.036;2022-11-15T15:53:02;38.67;;;25.48;;
35506;SDS011;36461;52.018;21.036;2022-11-15T15:55:30;39.10;;;25.60;;
35506;SDS011;36461;52.018;21.036;2022-11-15T15:57:57;37.85;;;24.92;;
35506;SDS011;36461;52.018;21.036;2022-11-15T16:00:24;40.73;;;25.95;;
35506;SDS011;36461;52.018;21.036;2022-11-15T16:02:52;45.38;;;28.47;;
35506;SDS011;36461;52.018;21.036;2022-11-15T16:05:19;43.65;;;27.40;;
35506;SDS011;36461;52.018;21.036;2022-11-15T16:07:47;37.13;;;25.17;;
35506;SDS011;36461;52.018;21.036;2022-11-15T16:10:16;39.05;;;24.15;;
35506;SDS011;36461;52.018;21.036;2022-11-15T16:12:50;39.63;;;25.72;;
35506;SDS011;36461;52.018;21.036;2022-11-15T16:15:18;37.03;;;24.98;;
35506;SDS011;36461;52.018;21.036;2022-11-15T16:17:48;38.85;;;24.67;;
35506;SDS011;36461;52.018;21.036;2022-11-15T16:20:30;39.70;;;25.50;;
35506;SDS011;36461;52.018;21.036;2022-11-15T16:22:57;38.13;;;24.63;;
35506;SDS011;36461;52.018;21.036;2022-11-15T16:25:25;39.20;;;25.37;;
35506;SDS011;36461;52.018;21.036;2022-11-15T16:27:52;39.88;;;24.82;;
35506;SDS011;36461;52.018;21.036;2022-11-15T16:30:20;36.10;;;24.30;;
35506;SDS011;36461;52.018;21.036;2022-11-15T16:32:48;41.02;;;25.57;;
35506;SDS011;36461;52.018;21.036;2022-11-15T16:35:15;37.25;;;24.05;;
35506;SDS011;36461;52.018;21.036;2022-11-15T16:37:43;38.00;;;24.65;;
35506;SDS011;36461;52.018;21.036;2022-11-15T16:40:27;41.25;;;27.25;;
35506;SDS011;36461;52.018;21.036;2022-11-15T16:42:53;37.20;;;24.50;;
35506;SDS011;36461;52.018;21.036;2022-11-15T16:45:21;40.50;;;25.45;;
35506;SDS011;36461;52.018;21.036;2022-11-15T16:50:18;38.63;;;24.98;;
35506;SDS011;36461;52.018;21.036;2022-11-15T16:52:49;42.73;;;27.05;;
35506;SDS011;36461;52.018;21.036;2022-11-15T16:55:21;43.80;;;27.20;;
35506;SDS011;36461;52.018;21.036;2022-11-15T16:57:54;39.53;;;24.57;;
35506;SDS011;36461;52.018;21.036;2022-11-15T17:00:23;37.45;;;24.43;;
35506;SDS011;36461;52.018;21.036;2022-11-15T17:02:50;38.70;;;24.72;;
35506;SDS011;36461;52.018;21.036;2022-11-15T17:05:20;43.55;;;27.10;;
35506;SDS011;36461;52.018;21.036;2022-11-15T17:07:48;38.70;;;25.48;;
35506;SDS011;36461;52.018;21.036;2022-11-15T17:10:19;43.00;;;27.67;;
35506;SDS011;36461;52.018;21.036;2022-11-15T17:12:50;45.03;;;28.00;;
35506;SDS011;36461;52.018;21.036;2022-11-15T17:15:18;46.95;;;29.40;;
35506;SDS011;36461;52.018;21.036;2022-11-15T17:20:17;52.53;;;30.32;;
35506;SDS011;36461;52.018;21.036;2022-11-15T17:22:46;45.83;;;28.10;;
35506;SDS011;36461;52.018;21.036;2022-11-15T17:25:13;40.83;;;27.10;;
35506;SDS011;36461;52.018;21.036;2022-11-15T17:27:40;43.38;;;27.60;;
35506;SDS011;36461;52.018;21.036;2022-11-15T17:30:07;45.43;;;27.57;;
35506;SDS011;36461;52.018;21.036;2022-11-15T17:32:35;43.05;;;27.00;;
35506;SDS011;36461;52.018;21.036;2022-11-15T17:35:02;46.30;;;28.10;;
35506;SDS011;36461;52.018;21.036;2022-11-15T17:37:34;51.33;;;30.32;;
35506;SDS011;36461;52.018;21.036;2022-11-15T17:40:01;53.00;;;30.97;;
35506;SDS011;36461;52.018;21.036;2022-11-15T17:44:54;42.23;;;25.82;;
35506;SDS011;36461;52.018;21.036;2022-11-15T17:47:20;53.85;;;30.35;;
35506;SDS011;36461;52.018;21.036;2022-11-15T17:49:49;54.83;;;29.60;;
35506;SDS011;36461;52.018;21.036;2022-11-15T17:52:15;71.02;;;36.60;;
35506;SDS011;36461;52.018;21.036;2022-11-15T17:54:41;86.17;;;41.40;;
35506;SDS011;36461;52.018;21.036;2022-11-15T17:57:09;51.28;;;29.00;;
35506;SDS011;36461;52.018;21.036;2022-11-15T17:59:35;48.20;;;28.50;;
35506;SDS011;36461;52.018;21.036;2022-11-15T18:02:02;49.48;;;29.12;;
35506;SDS011;36461;52.018;21.036;2022-11-15T18:04:31;45.90;;;26.30;;
35506;SDS011;36461;52.018;21.036;2022-11-15T18:06:57;46.68;;;26.65;;
35506;SDS011;36461;52.018;21.036;2022-11-15T18:09:23;42.45;;;25.72;;